Meteo Giornale » Osservazioni meteo Stati Uniti (USA) » Yankton
ore: 23:56 - Osservazioni Meteo Yankton
Lat. 42° 55' N Lon. 97° 23' W Alt. 398 metri s.l.m.
23 °C
Sereno
Temp. 24 Ore
19 °C
32 °C
Nord
0 Km/h
Dew point 21 °C
Umidità 88 %
Visibilità 10 Km
Il sole sorge alle ore 06:54
Il sole tramonta alle ore 20:04
| Data e Ora | Cielo e Fenomeni | T °C | DP °C | Um. % | Pres. hPa | Vis. km | Vento km/h | |
|---|---|---|---|---|---|---|---|---|
| Ieri h: 23:56 | Sereno | 23 | 21 | 88 | 1014 | 10 | N 0 | |
| Ieri h: 22:56 | Sereno | 23 | 21 | 88 | 1014 | 10 | N 0 | |
| Ieri h: 21:56 | Sereno | 23 | 20 | 83 | 1014 | 10 | N 0 | |
| Ieri h: 20:56 | Sereno | 27 | 21 | 69 | 1013 | 10 | N 5.5 | |
| Ieri h: 19:56 | Sereno | 29 | 20 | 58 | 1013 | 10 | S 13 | |
| Ieri h: 18:56 | Sereno | 31 | 18 | 45 | 1013 | 10 | S 16.7 | |
| Ieri h: 17:56 | Sereno | 32 | 17 | 40 | 1013 | 10 | E/SE 14.8 | |
| Ieri h: 16:56 | Sereno | 32 | 16 | 38 | 1013 | 10 | S/SE 9.3 | |
| Ieri h: 15:56 | Sereno | 32 | 16 | 38 | 1013 | 10 | N 5.5 | |
| Ieri h: 14:56 | Sereno | 31 | 16 | 40 | 1014 | 10 | E/NE 7.4 | |
| Ieri h: 13:56 | Sereno | 30 | 15 | 40 | 1014 | 10 | N 0 | |
| Ieri h: 12:56 | Sereno | 28 | 16 | 48 | 1014 | 10 | NO 13 | |
| Ieri h: 11:56 | Sereno | 26 | 17 | 57 | 1014 | 10 | O/NO 16.7 | |
| Ieri h: 10:56 | Sereno | 23 | 16 | 64 | 1014 | 10 | O/NO 13 | |
| Ieri h: 09:56 | Sereno | 21 | 16 | 73 | 1015 | 10 | NO 18.5 | |
| Ieri h: 08:56 | Sereno | 20 | 16 | 77 | 1014 | 10 | NO 24 | |
| Ieri h: 07:56 | Sereno | 19 | 16 | 82 | 1013 | 10 | NO 18.5 | |
| Ieri h: 06:56 | Sereno | 19 | 17 | 88 | 1012 | 10 | O/NO 24 | |
| Ieri h: 05:56 | Sereno | 21 | 20 | 94 | 1011 | 10 | O/NO 14.8 | |
| Ieri h: 04:56 | Sereno | 21 | 19 | 88 | 1010 | 10 | O/NO 13 | |
| Ieri h: 03:56 | Sereno | 23 | 17 | 68 | 1009 | 10 | O 20.3 | |
| Ieri h: 02:56 | Sereno | 26 | 19 | 65 | 1009 | 10 | NO 20.3 | |
| Ieri h: 01:56 | Sereno | 26 | 19 | 65 | 1008 | 10 | SO 11.1 | |
| Ieri h: 00:56 | Sereno | 27 | 19 | 61 | 1008 | 10 | S 11.1 | |



